Terminal Aerodrome Forecast
Issued by NWS

Home | Current Version | Previous Version | Text Only | Print | Product List | Glossary On
Versions: 1 2 3 4 5 6 7 8 9 10 11 12 13
494
FTUS45 KTFX 191120
TAFBZN
TAF
KBZN 191120Z 1912/2018 VRB06KT P6SM FEW130 SCT250
     FM191600 20012KT P6SM SCT100 BKN180
     FM200400 18009KT P6SM SCT120 BKN250=

USA.gov is the U.S. government's official web portal to all federal, state and local government web resources and services.